sensor_id;sensor_type;location;lat;lon;timestamp;temperature;humidity
3332;DHT22;1678;50.94845400;5.30809100;2022-09-09T00:00:25;14.90;99.90
3332;DHT22;1678;50.94845400;5.30809100;2022-09-09T00:03:00;14.80;99.90
3332;DHT22;1678;50.94845400;5.30809100;2022-09-09T00:05:36;14.80;99.90
3332;DHT22;1678;50.94845400;5.30809100;2022-09-09T00:08:15;14.80;99.90
3332;DHT22;1678;50.94845400;5.30809100;2022-09-09T00:10:49;14.70;99.90
3332;DHT22;1678;50.94845400;5.30809100;2022-09-09T00:13:24;14.70;99.90
3332;DHT22;1678;50.94845400;5.30809100;2022-09-09T00:15:59;14.70;99.90
3332;DHT22;1678;50.94845400;5.30809100;2022-09-09T00:18:31;14.70;99.90
3332;DHT22;1678;50.94845400;5.30809100;2022-09-09T00:21:07;14.60;99.90
3332;DHT22;1678;50.94845400;5.30809100;2022-09-09T00:23:40;14.60;99.90
3332;DHT22;1678;50.94845400;5.30809100;2022-09-09T00:26:16;14.60;99.90
3332;DHT22;1678;50.94845400;5.30809100;2022-09-09T00:28:50;14.50;99.90
3332;DHT22;1678;50.94845400;5.30809100;2022-09-09T00:31:25;14.50;99.90
3332;DHT22;1678;50.94845400;5.30809100;2022-09-09T00:33:55;14.40;99.90
3332;DHT22;1678;50.94845400;5.30809100;2022-09-09T00:36:27;14.40;99.90
3332;DHT22;1678;50.94845400;5.30809100;2022-09-09T00:38:57;14.30;99.90
3332;DHT22;1678;50.94845400;5.30809100;2022-09-09T00:41:33;14.40;99.90
3332;DHT22;1678;50.94845400;5.30809100;2022-09-09T00:44:20;14.40;99.90
3332;DHT22;1678;50.94845400;5.30809100;2022-09-09T00:47:17;14.30;99.90
3332;DHT22;1678;50.94845400;5.30809100;2022-09-09T00:49:57;14.20;99.90
3332;DHT22;1678;50.94845400;5.30809100;2022-09-09T00:52:36;14.20;99.90
3332;DHT22;1678;50.94845400;5.30809100;2022-09-09T00:55:12;14.20;99.90
3332;DHT22;1678;50.94845400;5.30809100;2022-09-09T00:57:43;14.10;99.90
3332;DHT22;1678;50.94845400;5.30809100;2022-09-09T01:00:25;14.10;99.90
3332;DHT22;1678;50.94845400;5.30809100;2022-09-09T01:03:07;14.00;99.90
3332;DHT22;1678;50.94845400;5.30809100;2022-09-09T01:05:44;14.00;99.90
3332;DHT22;1678;50.94845400;5.30809100;2022-09-09T01:08:39;13.90;99.90
3332;DHT22;1678;50.94845400;5.30809100;2022-09-09T01:11:12;13.80;99.90
3332;DHT22;1678;50.94845400;5.30809100;2022-09-09T01:13:44;13.90;99.90
3332;DHT22;1678;50.94845400;5.30809100;2022-09-09T01:16:14;13.90;99.90
3332;DHT22;1678;50.94845400;5.30809100;2022-09-09T01:18:46;13.90;99.90
3332;DHT22;1678;50.94845400;5.30809100;2022-09-09T01:21:21;13.90;99.90
3332;DHT22;1678;50.94845400;5.30809100;2022-09-09T01:24:08;14.10;99.90
3332;DHT22;1678;50.94845400;5.30809100;2022-09-09T01:26:43;14.10;99.90
3332;DHT22;1678;50.94845400;5.30809100;2022-09-09T01:29:13;14.10;99.90
3332;DHT22;1678;50.94845400;5.30809100;2022-09-09T01:31:51;14.30;99.90
3332;DHT22;1678;50.94845400;5.30809100;2022-09-09T01:34:20;14.40;99.90
3332;DHT22;1678;50.94845400;5.30809100;2022-09-09T01:36:54;14.30;99.90
3332;DHT22;1678;50.94845400;5.30809100;2022-09-09T01:39:25;14.30;99.90
3332;DHT22;1678;50.94845400;5.30809100;2022-09-09T01:41:55;14.40;99.90
3332;DHT22;1678;50.94845400;5.30809100;2022-09-09T01:44:24;14.40;99.90
3332;DHT22;1678;50.94845400;5.30809100;2022-09-09T01:46:53;14.40;99.90
3332;DHT22;1678;50.94845400;5.30809100;2022-09-09T01:49:21;14.50;99.90
3332;DHT22;1678;50.94845400;5.30809100;2022-09-09T01:51:51;14.40;99.90
3332;DHT22;1678;50.94845400;5.30809100;2022-09-09T01:54:21;14.40;99.90
3332;DHT22;1678;50.94845400;5.30809100;2022-09-09T01:56:58;14.40;99.90
3332;DHT22;1678;50.94845400;5.30809100;2022-09-09T01:59:48;14.50;99.90
3332;DHT22;1678;50.94845400;5.30809100;2022-09-09T02:02:19;14.40;99.90
3332;DHT22;1678;50.94845400;5.30809100;2022-09-09T02:04:52;14.40;99.90
3332;DHT22;1678;50.94845400;5.30809100;2022-09-09T02:07:33;14.60;99.90
3332;DHT22;1678;50.94845400;5.30809100;2022-09-09T02:10:09;14.60;99.90
3332;DHT22;1678;50.94845400;5.30809100;2022-09-09T02:12:43;14.70;99.90
3332;DHT22;1678;50.94845400;5.30809100;2022-09-09T02:15:16;14.70;99.90
3332;DHT22;1678;50.94845400;5.30809100;2022-09-09T02:17:46;14.60;99.90
3332;DHT22;1678;50.94845400;5.30809100;2022-09-09T02:20:18;14.70;99.90
3332;DHT22;1678;50.94845400;5.30809100;2022-09-09T02:22:49;14.70;99.90
3332;DHT22;1678;50.94845400;5.30809100;2022-09-09T02:25:22;14.80;99.90
3332;DHT22;1678;50.94845400;5.30809100;2022-09-09T02:27:52;14.70;99.90
3332;DHT22;1678;50.94845400;5.30809100;2022-09-09T02:30:20;14.70;99.90
3332;DHT22;1678;50.94845400;5.30809100;2022-09-09T02:32:51;14.70;99.90
3332;DHT22;1678;50.94845400;5.30809100;2022-09-09T02:35:24;14.70;99.90
3332;DHT22;1678;50.94845400;5.30809100;2022-09-09T02:37:55;14.80;99.90
3332;DHT22;1678;50.94845400;5.30809100;2022-09-09T02:40:25;14.70;99.90
3332;DHT22;1678;50.94845400;5.30809100;2022-09-09T02:42:55;14.70;99.90
3332;DHT22;1678;50.94845400;5.30809100;2022-09-09T02:45:25;14.70;99.90
3332;DHT22;1678;50.94845400;5.30809100;2022-09-09T02:48:01;14.70;99.90
3332;DHT22;1678;50.94845400;5.30809100;2022-09-09T02:50:33;14.70;99.90
3332;DHT22;1678;50.94845400;5.30809100;2022-09-09T02:53:07;14.70;99.90
3332;DHT22;1678;50.94845400;5.30809100;2022-09-09T02:55:40;14.80;99.90
3332;DHT22;1678;50.94845400;5.30809100;2022-09-09T02:58:13;14.70;99.90
3332;DHT22;1678;50.94845400;5.30809100;2022-09-09T03:00:45;14.80;99.90
3332;DHT22;1678;50.94845400;5.30809100;2022-09-09T03:03:13;14.70;99.90
3332;DHT22;1678;50.94845400;5.30809100;2022-09-09T03:05:43;14.70;99.90
3332;DHT22;1678;50.94845400;5.30809100;2022-09-09T03:08:12;14.60;99.90
3332;DHT22;1678;50.94845400;5.30809100;2022-09-09T03:10:40;14.70;99.90
3332;DHT22;1678;50.94845400;5.30809100;2022-09-09T03:13:08;14.70;99.90
3332;DHT22;1678;50.94845400;5.30809100;2022-09-09T03:15:37;14.70;99.90
3332;DHT22;1678;50.94845400;5.30809100;2022-09-09T03:18:05;14.70;99.90
3332;DHT22;1678;50.94845400;5.30809100;2022-09-09T03:20:33;14.70;99.90
3332;DHT22;1678;50.94845400;5.30809100;2022-09-09T03:23:02;14.70;99.90
3332;DHT22;1678;50.94845400;5.30809100;2022-09-09T03:25:30;14.60;99.90
3332;DHT22;1678;50.94845400;5.30809100;2022-09-09T03:27:58;14.80;99.90
3332;DHT22;1678;50.94845400;5.30809100;2022-09-09T03:30:27;14.80;99.90
3332;DHT22;1678;50.94845400;5.30809100;2022-09-09T03:32:57;14.80;99.90
3332;DHT22;1678;50.94845400;5.30809100;2022-09-09T03:35:25;14.80;99.90
3332;DHT22;1678;50.94845400;5.30809100;2022-09-09T03:37:53;14.90;99.90
3332;DHT22;1678;50.94845400;5.30809100;2022-09-09T03:40:22;14.90;99.90
3332;DHT22;1678;50.94845400;5.30809100;2022-09-09T03:42:50;14.90;99.90
3332;DHT22;1678;50.94845400;5.30809100;2022-09-09T03:45:18;14.90;99.90
3332;DHT22;1678;50.94845400;5.30809100;2022-09-09T03:47:46;14.90;99.90
3332;DHT22;1678;50.94845400;5.30809100;2022-09-09T03:50:16;14.90;99.90
3332;DHT22;1678;50.94845400;5.30809100;2022-09-09T03:52:45;14.90;99.90
3332;DHT22;1678;50.94845400;5.30809100;2022-09-09T03:55:13;14.80;99.90
3332;DHT22;1678;50.94845400;5.30809100;2022-09-09T03:57:41;14.80;99.90
3332;DHT22;1678;50.94845400;5.30809100;2022-09-09T04:00:10;14.80;99.90
3332;DHT22;1678;50.94845400;5.30809100;2022-09-09T04:02:38;14.80;99.90
3332;DHT22;1678;50.94845400;5.30809100;2022-09-09T04:05:07;14.70;99.90
3332;DHT22;1678;50.94845400;5.30809100;2022-09-09T04:07:37;14.80;99.90
3332;DHT22;1678;50.94845400;5.30809100;2022-09-09T04:10:06;14.70;99.90
3332;DHT22;1678;50.94845400;5.30809100;2022-09-09T04:12:35;14.80;99.90
3332;DHT22;1678;50.94845400;5.30809100;2022-09-09T04:15:03;14.80;99.90
3332;DHT22;1678;50.94845400;5.30809100;2022-09-09T04:17:31;14.80;99.90
3332;DHT22;1678;50.94845400;5.30809100;2022-09-09T04:20:00;14.70;99.90
3332;DHT22;1678;50.94845400;5.30809100;2022-09-09T04:22:28;14.70;99.90
3332;DHT22;1678;50.94845400;5.30809100;2022-09-09T04:24:57;14.70;99.90
3332;DHT22;1678;50.94845400;5.30809100;2022-09-09T04:27:25;14.70;99.90
3332;DHT22;1678;50.94845400;5.30809100;2022-09-09T04:29:53;14.70;99.90
3332;DHT22;1678;50.94845400;5.30809100;2022-09-09T04:32:23;14.60;99.90
3332;DHT22;1678;50.94845400;5.30809100;2022-09-09T04:34:53;14.60;99.90
3332;DHT22;1678;50.94845400;5.30809100;2022-09-09T04:37:21;14.60;99.90
3332;DHT22;1678;50.94845400;5.30809100;2022-09-09T04:39:49;14.50;99.90
3332;DHT22;1678;50.94845400;5.30809100;2022-09-09T04:42:22;14.60;99.90
3332;DHT22;1678;50.94845400;5.30809100;2022-09-09T04:44:50;14.70;99.90
3332;DHT22;1678;50.94845400;5.30809100;2022-09-09T04:47:18;14.60;99.90
3332;DHT22;1678;50.94845400;5.30809100;2022-09-09T04:49:46;14.60;99.90
3332;DHT22;1678;50.94845400;5.30809100;2022-09-09T04:52:14;14.50;99.90
3332;DHT22;1678;50.94845400;5.30809100;2022-09-09T04:54:43;14.60;99.90
3332;DHT22;1678;50.94845400;5.30809100;2022-09-09T04:57:12;14.60;99.90
3332;DHT22;1678;50.94845400;5.30809100;2022-09-09T04:59:46;14.60;99.90
3332;DHT22;1678;50.94845400;5.30809100;2022-09-09T05:02:14;14.50;99.90
3332;DHT22;1678;50.94845400;5.30809100;2022-09-09T05:04:42;14.50;99.90
3332;DHT22;1678;50.94845400;5.30809100;2022-09-09T05:07:10;14.50;99.90
3332;DHT22;1678;50.94845400;5.30809100;2022-09-09T05:09:40;14.50;99.90
3332;DHT22;1678;50.94845400;5.30809100;2022-09-09T05:12:08;14.50;99.90
3332;DHT22;1678;50.94845400;5.30809100;2022-09-09T05:14:36;14.60;99.90
3332;DHT22;1678;50.94845400;5.30809100;2022-09-09T05:17:05;14.60;99.90
3332;DHT22;1678;50.94845400;5.30809100;2022-09-09T05:19:33;14.60;99.90
3332;DHT22;1678;50.94845400;5.30809100;2022-09-09T05:22:01;14.60;99.90
3332;DHT22;1678;50.94845400;5.30809100;2022-09-09T05:24:29;14.60;99.90
3332;DHT22;1678;50.94845400;5.30809100;2022-09-09T05:26:59;14.60;99.90
3332;DHT22;1678;50.94845400;5.30809100;2022-09-09T05:29:28;14.70;99.90
3332;DHT22;1678;50.94845400;5.30809100;2022-09-09T05:32:00;14.60;99.90
3332;DHT22;1678;50.94845400;5.30809100;2022-09-09T05:34:29;14.60;99.90
3332;DHT22;1678;50.94845400;5.30809100;2022-09-09T05:36:57;14.60;99.90
3332;DHT22;1678;50.94845400;5.30809100;2022-09-09T05:39:26;14.70;99.90
3332;DHT22;1678;50.94845400;5.30809100;2022-09-09T05:41:54;14.70;99.90
3332;DHT22;1678;50.94845400;5.30809100;2022-09-09T05:44:22;14.70;99.90
3332;DHT22;1678;50.94845400;5.30809100;2022-09-09T05:46:54;14.70;99.90
3332;DHT22;1678;50.94845400;5.30809100;2022-09-09T05:49:22;14.80;99.90
3332;DHT22;1678;50.94845400;5.30809100;2022-09-09T05:51:52;14.80;99.90
3332;DHT22;1678;50.94845400;5.30809100;2022-09-09T05:54:20;14.80;99.90
3332;DHT22;1678;50.94845400;5.30809100;2022-09-09T05:56:48;14.80;99.90
3332;DHT22;1678;50.94845400;5.30809100;2022-09-09T05:59:19;14.90;99.90
3332;DHT22;1678;50.94845400;5.30809100;2022-09-09T06:01:49;14.90;99.90
3332;DHT22;1678;50.94845400;5.30809100;2022-09-09T06:04:18;14.90;99.90
3332;DHT22;1678;50.94845400;5.30809100;2022-09-09T06:06:48;14.90;99.90
3332;DHT22;1678;50.94845400;5.30809100;2022-09-09T06:09:17;15.00;99.90
3332;DHT22;1678;50.94845400;5.30809100;2022-09-09T06:11:45;15.10;99.90
3332;DHT22;1678;50.94845400;5.30809100;2022-09-09T06:14:13;15.20;99.90
3332;DHT22;1678;50.94845400;5.30809100;2022-09-09T06:16:41;15.30;99.90
3332;DHT22;1678;50.94845400;5.30809100;2022-09-09T06:19:10;15.40;99.90
3332;DHT22;1678;50.94845400;5.30809100;2022-09-09T06:21:39;15.50;99.90
3332;DHT22;1678;50.94845400;5.30809100;2022-09-09T06:24:08;15.70;99.90
3332;DHT22;1678;50.94845400;5.30809100;2022-09-09T06:26:39;15.90;99.90
3332;DHT22;1678;50.94845400;5.30809100;2022-09-09T06:29:08;15.90;99.90
3332;DHT22;1678;50.94845400;5.30809100;2022-09-09T06:31:37;15.90;99.90
3332;DHT22;1678;50.94845400;5.30809100;2022-09-09T06:34:07;15.80;99.90
3332;DHT22;1678;50.94845400;5.30809100;2022-09-09T06:36:36;15.80;99.90
3332;DHT22;1678;50.94845400;5.30809100;2022-09-09T06:39:05;15.80;99.90
3332;DHT22;1678;50.94845400;5.30809100;2022-09-09T06:41:41;15.80;99.90
3332;DHT22;1678;50.94845400;5.30809100;2022-09-09T06:44:10;16.00;99.90
3332;DHT22;1678;50.94845400;5.30809100;2022-09-09T06:46:39;16.00;99.90
3332;DHT22;1678;50.94845400;5.30809100;2022-09-09T06:49:08;16.10;99.90
3332;DHT22;1678;50.94845400;5.30809100;2022-09-09T06:51:37;16.20;99.90
3332;DHT22;1678;50.94845400;5.30809100;2022-09-09T06:54:10;16.50;99.90
3332;DHT22;1678;50.94845400;5.30809100;2022-09-09T06:56:41;16.60;99.90
3332;DHT22;1678;50.94845400;5.30809100;2022-09-09T06:59:10;16.80;99.90
3332;DHT22;1678;50.94845400;5.30809100;2022-09-09T07:01:39;16.80;99.90
3332;DHT22;1678;50.94845400;5.30809100;2022-09-09T07:04:08;16.90;99.90
3332;DHT22;1678;50.94845400;5.30809100;2022-09-09T07:06:39;16.90;99.90
3332;DHT22;1678;50.94845400;5.30809100;2022-09-09T07:09:09;16.90;99.90
3332;DHT22;1678;50.94845400;5.30809100;2022-09-09T07:11:39;17.00;99.90
3332;DHT22;1678;50.94845400;5.30809100;2022-09-09T07:14:09;17.10;99.90
3332;DHT22;1678;50.94845400;5.30809100;2022-09-09T07:16:39;17.20;99.90
3332;DHT22;1678;50.94845400;5.30809100;2022-09-09T07:19:08;17.40;99.90
3332;DHT22;1678;50.94845400;5.30809100;2022-09-09T07:21:37;17.50;99.90
3332;DHT22;1678;50.94845400;5.30809100;2022-09-09T07:24:06;17.60;99.90
3332;DHT22;1678;50.94845400;5.30809100;2022-09-09T07:26:38;17.60;99.90
3332;DHT22;1678;50.94845400;5.30809100;2022-09-09T07:29:07;17.90;99.90
3332;DHT22;1678;50.94845400;5.30809100;2022-09-09T07:31:38;18.00;99.90
3332;DHT22;1678;50.94845400;5.30809100;2022-09-09T07:34:07;17.80;99.90
3332;DHT22;1678;50.94845400;5.30809100;2022-09-09T07:36:37;17.80;99.90
3332;DHT22;1678;50.94845400;5.30809100;2022-09-09T07:39:07;18.10;99.90
3332;DHT22;1678;50.94845400;5.30809100;2022-09-09T07:41:37;18.40;99.90
3332;DHT22;1678;50.94845400;5.30809100;2022-09-09T07:44:08;18.50;99.90
3332;DHT22;1678;50.94845400;5.30809100;2022-09-09T07:46:39;18.40;99.90
3332;DHT22;1678;50.94845400;5.30809100;2022-09-09T07:49:09;18.40;99.90
3332;DHT22;1678;50.94845400;5.30809100;2022-09-09T07:51:38;18.20;99.90
3332;DHT22;1678;50.94845400;5.30809100;2022-09-09T07:54:09;18.20;99.90
3332;DHT22;1678;50.94845400;5.30809100;2022-09-09T07:56:38;18.10;99.90
3332;DHT22;1678;50.94845400;5.30809100;2022-09-09T07:59:07;18.10;99.90
3332;DHT22;1678;50.94845400;5.30809100;2022-09-09T08:01:39;18.00;99.90
3332;DHT22;1678;50.94845400;5.30809100;2022-09-09T08:04:10;18.00;99.90
3332;DHT22;1678;50.94845400;5.30809100;2022-09-09T08:06:46;18.00;99.90
3332;DHT22;1678;50.94845400;5.30809100;2022-09-09T08:09:14;17.70;99.90
3332;DHT22;1678;50.94845400;5.30809100;2022-09-09T08:11:43;17.60;99.90
3332;DHT22;1678;50.94845400;5.30809100;2022-09-09T08:14:11;17.60;99.90
3332;DHT22;1678;50.94845400;5.30809100;2022-09-09T08:16:42;17.60;99.90
3332;DHT22;1678;50.94845400;5.30809100;2022-09-09T08:19:11;17.60;99.90
3332;DHT22;1678;50.94845400;5.30809100;2022-09-09T08:21:40;17.60;99.90
3332;DHT22;1678;50.94845400;5.30809100;2022-09-09T08:24:09;17.60;99.90
3332;DHT22;1678;50.94845400;5.30809100;2022-09-09T08:26:39;17.60;99.90
3332;DHT22;1678;50.94845400;5.30809100;2022-09-09T08:29:09;17.60;99.90
3332;DHT22;1678;50.94845400;5.30809100;2022-09-09T08:31:40;17.50;99.90
3332;DHT22;1678;50.94845400;5.30809100;2022-09-09T08:34:09;17.60;99.90
3332;DHT22;1678;50.94845400;5.30809100;2022-09-09T08:36:40;17.60;99.90
3332;DHT22;1678;50.94845400;5.30809100;2022-09-09T08:39:10;17.60;99.90
3332;DHT22;1678;50.94845400;5.30809100;2022-09-09T08:42:01;17.60;99.90
3332;DHT22;1678;50.94845400;5.30809100;2022-09-09T08:44:43;17.60;99.90
3332;DHT22;1678;50.94845400;5.30809100;2022-09-09T08:47:21;17.60;99.90
3332;DHT22;1678;50.94845400;5.30809100;2022-09-09T08:50:05;17.60;99.90
3332;DHT22;1678;50.94845400;5.30809100;2022-09-09T08:52:39;17.50;99.90
3332;DHT22;1678;50.94845400;5.30809100;2022-09-09T08:55:23;17.40;99.90
3332;DHT22;1678;50.94845400;5.30809100;2022-09-09T08:57:54;17.50;99.90
3332;DHT22;1678;50.94845400;5.30809100;2022-09-09T09:00:31;17.50;99.90
3332;DHT22;1678;50.94845400;5.30809100;2022-09-09T09:03:09;17.40;99.90
3332;DHT22;1678;50.94845400;5.30809100;2022-09-09T09:05:44;17.60;99.90
3332;DHT22;1678;50.94845400;5.30809100;2022-09-09T09:08:20;17.60;99.90
3332;DHT22;1678;50.94845400;5.30809100;2022-09-09T09:10:57;17.60;99.90
3332;DHT22;1678;50.94845400;5.30809100;2022-09-09T09:13:31;17.70;99.90
3332;DHT22;1678;50.94845400;5.30809100;2022-09-09T09:16:17;17.70;99.90
3332;DHT22;1678;50.94845400;5.30809100;2022-09-09T09:18:48;17.70;99.90
3332;DHT22;1678;50.94845400;5.30809100;2022-09-09T09:21:21;17.60;99.90
3332;DHT22;1678;50.94845400;5.30809100;2022-09-09T09:23:56;17.70;99.90
3332;DHT22;1678;50.94845400;5.30809100;2022-09-09T09:26:30;17.90;99.90
3332;DHT22;1678;50.94845400;5.30809100;2022-09-09T09:28:59;18.10;99.90
3332;DHT22;1678;50.94845400;5.30809100;2022-09-09T09:31:29;18.30;99.90
3332;DHT22;1678;50.94845400;5.30809100;2022-09-09T09:33:59;18.30;99.90
3332;DHT22;1678;50.94845400;5.30809100;2022-09-09T09:36:34;18.20;99.90
3332;DHT22;1678;50.94845400;5.30809100;2022-09-09T09:39:03;18.30;99.90
3332;DHT22;1678;50.94845400;5.30809100;2022-09-09T09:41:52;18.40;99.90
3332;DHT22;1678;50.94845400;5.30809100;2022-09-09T09:44:26;18.70;99.90
3332;DHT22;1678;50.94845400;5.30809100;2022-09-09T09:47:06;18.80;99.90
3332;DHT22;1678;50.94845400;5.30809100;2022-09-09T09:49:35;18.80;99.90
3332;DHT22;1678;50.94845400;5.30809100;2022-09-09T09:52:04;18.60;99.90
3332;DHT22;1678;50.94845400;5.30809100;2022-09-09T09:54:37;18.80;99.90
3332;DHT22;1678;50.94845400;5.30809100;2022-09-09T09:57:09;18.80;99.90
3332;DHT22;1678;50.94845400;5.30809100;2022-09-09T09:59:38;18.60;99.90
3332;DHT22;1678;50.94845400;5.30809100;2022-09-09T10:02:16;18.50;99.90
3332;DHT22;1678;50.94845400;5.30809100;2022-09-09T10:04:47;18.20;99.90
3332;DHT22;1678;50.94845400;5.30809100;2022-09-09T10:07:18;17.80;99.90
3332;DHT22;1678;50.94845400;5.30809100;2022-09-09T10:09:51;17.20;99.90
3332;DHT22;1678;50.94845400;5.30809100;2022-09-09T10:12:29;16.50;99.90
3332;DHT22;1678;50.94845400;5.30809100;2022-09-09T10:15:04;16.30;99.90
3332;DHT22;1678;50.94845400;5.30809100;2022-09-09T10:17:40;16.30;99.90
3332;DHT22;1678;50.94845400;5.30809100;2022-09-09T10:20:22;16.20;99.90
3332;DHT22;1678;50.94845400;5.30809100;2022-09-09T10:23:05;16.10;99.90
3332;DHT22;1678;50.94845400;5.30809100;2022-09-09T10:25:49;16.10;99.90
3332;DHT22;1678;50.94845400;5.30809100;2022-09-09T10:28:55;16.20;99.90
3332;DHT22;1678;50.94845400;5.30809100;2022-09-09T10:31:32;16.20;99.90
3332;DHT22;1678;50.94845400;5.30809100;2022-09-09T10:34:16;16.20;99.90
3332;DHT22;1678;50.94845400;5.30809100;2022-09-09T10:36:49;16.10;99.90
3332;DHT22;1678;50.94845400;5.30809100;2022-09-09T10:39:34;16.10;99.90
3332;DHT22;1678;50.94845400;5.30809100;2022-09-09T10:42:11;16.00;99.90
3332;DHT22;1678;50.94845400;5.30809100;2022-09-09T10:44:55;16.00;99.90
3332;DHT22;1678;50.94845400;5.30809100;2022-09-09T10:50:40;16.10;99.90
3332;DHT22;1678;50.94845400;5.30809100;2022-09-09T10:53:43;16.40;99.90
3332;DHT22;1678;50.94845400;5.30809100;2022-09-09T10:56:16;16.50;99.90
3332;DHT22;1678;50.94845400;5.30809100;2022-09-09T10:58:49;16.70;99.90
3332;DHT22;1678;50.94845400;5.30809100;2022-09-09T11:01:22;16.80;99.90
3332;DHT22;1678;50.94845400;5.30809100;2022-09-09T11:03:55;16.90;99.90
3332;DHT22;1678;50.94845400;5.30809100;2022-09-09T11:06:30;16.80;99.90
3332;DHT22;1678;50.94845400;5.30809100;2022-09-09T11:09:02;17.10;99.90
3332;DHT22;1678;50.94845400;5.30809100;2022-09-09T11:11:36;17.20;99.90
3332;DHT22;1678;50.94845400;5.30809100;2022-09-09T11:14:10;17.20;99.90
3332;DHT22;1678;50.94845400;5.30809100;2022-09-09T11:16:42;17.30;99.90
3332;DHT22;1678;50.94845400;5.30809100;2022-09-09T11:19:16;17.20;99.90
3332;DHT22;1678;50.94845400;5.30809100;2022-09-09T11:21:49;17.40;99.90
3332;DHT22;1678;50.94845400;5.30809100;2022-09-09T11:24:23;17.40;99.90
3332;DHT22;1678;50.94845400;5.30809100;2022-09-09T11:26:55;17.70;99.90
3332;DHT22;1678;50.94845400;5.30809100;2022-09-09T11:29:37;17.70;99.90
3332;DHT22;1678;50.94845400;5.30809100;2022-09-09T11:32:26;18.00;99.90
3332;DHT22;1678;50.94845400;5.30809100;2022-09-09T11:35:02;17.90;99.90
3332;DHT22;1678;50.94845400;5.30809100;2022-09-09T11:37:50;18.00;99.90
3332;DHT22;1678;50.94845400;5.30809100;2022-09-09T11:40:24;18.10;99.90
3332;DHT22;1678;50.94845400;5.30809100;2022-09-09T11:43:04;18.00;99.90
3332;DHT22;1678;50.94845400;5.30809100;2022-09-09T11:45:34;17.50;99.90
3332;DHT22;1678;50.94845400;5.30809100;2022-09-09T11:48:04;17.40;99.90
3332;DHT22;1678;50.94845400;5.30809100;2022-09-09T11:50:37;17.40;99.90
3332;DHT22;1678;50.94845400;5.30809100;2022-09-09T11:53:21;17.40;99.90
3332;DHT22;1678;50.94845400;5.30809100;2022-09-09T11:56:30;17.30;99.90
3332;DHT22;1678;50.94845400;5.30809100;2022-09-09T11:59:02;17.40;99.90
3332;DHT22;1678;50.94845400;5.30809100;2022-09-09T12:01:35;17.60;99.90
3332;DHT22;1678;50.94845400;5.30809100;2022-09-09T12:04:26;17.50;99.90
3332;DHT22;1678;50.94845400;5.30809100;2022-09-09T12:06:59;17.20;99.90
3332;DHT22;1678;50.94845400;5.30809100;2022-09-09T12:09:33;17.00;99.90
3332;DHT22;1678;50.94845400;5.30809100;2022-09-09T12:12:25;17.10;99.90
3332;DHT22;1678;50.94845400;5.30809100;2022-09-09T12:17:48;17.20;99.90
3332;DHT22;1678;50.94845400;5.30809100;2022-09-09T12:20:18;17.00;99.90
3332;DHT22;1678;50.94845400;5.30809100;2022-09-09T12:23:19;16.80;99.90
3332;DHT22;1678;50.94845400;5.30809100;2022-09-09T12:28:57;16.80;99.90
3332;DHT22;1678;50.94845400;5.30809100;2022-09-09T12:31:30;16.80;99.90
3332;DHT22;1678;50.94845400;5.30809100;2022-09-09T12:34:09;16.90;99.90
3332;DHT22;1678;50.94845400;5.30809100;2022-09-09T12:36:38;17.10;99.90
3332;DHT22;1678;50.94845400;5.30809100;2022-09-09T12:39:16;17.30;99.90
3332;DHT22;1678;50.94845400;5.30809100;2022-09-09T12:41:51;17.60;99.90
3332;DHT22;1678;50.94845400;5.30809100;2022-09-09T12:44:25;17.40;99.90
3332;DHT22;1678;50.94845400;5.30809100;2022-09-09T12:46:56;17.50;99.90
3332;DHT22;1678;50.94845400;5.30809100;2022-09-09T12:49:32;17.50;99.90
3332;DHT22;1678;50.94845400;5.30809100;2022-09-09T12:52:05;17.60;99.90
3332;DHT22;1678;50.94845400;5.30809100;2022-09-09T12:54:35;17.40;99.90
3332;DHT22;1678;50.94845400;5.30809100;2022-09-09T12:57:05;17.80;99.90
3332;DHT22;1678;50.94845400;5.30809100;2022-09-09T12:59:39;18.00;99.90
3332;DHT22;1678;50.94845400;5.30809100;2022-09-09T13:02:18;18.40;99.90
3332;DHT22;1678;50.94845400;5.30809100;2022-09-09T13:04:47;18.40;99.90
3332;DHT22;1678;50.94845400;5.30809100;2022-09-09T13:07:17;18.20;99.90
3332;DHT22;1678;50.94845400;5.30809100;2022-09-09T13:09:47;18.10;99.90
3332;DHT22;1678;50.94845400;5.30809100;2022-09-09T13:12:18;18.30;99.90
3332;DHT22;1678;50.94845400;5.30809100;2022-09-09T13:14:50;17.90;99.90
3332;DHT22;1678;50.94845400;5.30809100;2022-09-09T13:17:22;17.70;99.90
3332;DHT22;1678;50.94845400;5.30809100;2022-09-09T13:19:51;17.90;99.90
3332;DHT22;1678;50.94845400;5.30809100;2022-09-09T13:22:23;17.70;99.90
3332;DHT22;1678;50.94845400;5.30809100;2022-09-09T13:25:03;17.60;99.90
3332;DHT22;1678;50.94845400;5.30809100;2022-09-09T13:27:32;17.60;99.90
3332;DHT22;1678;50.94845400;5.30809100;2022-09-09T13:30:24;17.60;99.90
3332;DHT22;1678;50.94845400;5.30809100;2022-09-09T13:33:18;17.50;99.90
3332;DHT22;1678;50.94845400;5.30809100;2022-09-09T13:35:50;17.60;99.90
3332;DHT22;1678;50.94845400;5.30809100;2022-09-09T13:38:19;17.90;99.90
3332;DHT22;1678;50.94845400;5.30809100;2022-09-09T13:40:55;17.80;99.90
3332;DHT22;1678;50.94845400;5.30809100;2022-09-09T13:43:25;18.00;99.90
3332;DHT22;1678;50.94845400;5.30809100;2022-09-09T13:45:59;17.90;99.90
3332;DHT22;1678;50.94845400;5.30809100;2022-09-09T13:48:28;17.80;99.90
3332;DHT22;1678;50.94845400;5.30809100;2022-09-09T13:51:00;17.80;99.90
3332;DHT22;1678;50.94845400;5.30809100;2022-09-09T13:53:28;17.90;99.90
3332;DHT22;1678;50.94845400;5.30809100;2022-09-09T13:55:57;18.10;99.90
3332;DHT22;1678;50.94845400;5.30809100;2022-09-09T13:58:26;18.40;99.90
3332;DHT22;1678;50.94845400;5.30809100;2022-09-09T14:00:54;17.70;99.90
3332;DHT22;1678;50.94845400;5.30809100;2022-09-09T14:03:23;17.60;99.90
3332;DHT22;1678;50.94845400;5.30809100;2022-09-09T14:05:51;17.70;99.90
3332;DHT22;1678;50.94845400;5.30809100;2022-09-09T14:08:24;17.60;99.90
3332;DHT22;1678;50.94845400;5.30809100;2022-09-09T14:10:53;17.60;99.90
3332;DHT22;1678;50.94845400;5.30809100;2022-09-09T14:13:26;17.30;99.90
3332;DHT22;1678;50.94845400;5.30809100;2022-09-09T14:15:54;17.60;99.90
3332;DHT22;1678;50.94845400;5.30809100;2022-09-09T14:18:23;17.60;99.90
3332;DHT22;1678;50.94845400;5.30809100;2022-09-09T14:20:52;17.50;99.90
3332;DHT22;1678;50.94845400;5.30809100;2022-09-09T14:23:20;17.50;99.90
3332;DHT22;1678;50.94845400;5.30809100;2022-09-09T14:25:49;17.50;99.90